Bemidji Regional Airport
KBJI : now visible

Airfield :











YOU CAN JOIN US ON...

 
LOGIN :

Register | Disclaimer

   EN    FR    IT 

 









Legend :    VFR   Marginal VFR   IFR   Intensive IFR   Very Intensive IFR
Visi :
Ceiling :
>= 8 km
>= 3000ft
5 to 8 km
1000 to 3000 ft
1500m to 5 km
500 to 1000 ft
800 to 1500m
200 to 500 ft
< 800m
< 200 ft
Symbols :   Thunderstorms  Fog  Heavy snow  Heavy precipitations  Wind > 20 kt






- Airport Elevation : 1391 ft


KBJI - Bemidji Regional

CURRENT METAR :
  • 240355Z AUTO 11012KT 10SM -RA OVC009 17/17 A2980 RMK AO2 P0004 T01660166

EXPIRED METARs :
  • 240335Z AUTO 11015G24KT 10SM -RA OVC009 17/17 A2981 RMK AO2 P0004 T01670167
  • 240315Z AUTO 11014G19KT 7SM RA OVC009 17/17 A2980 RMK AO2 LTG DSNT NE P0003 T01680168
  • 240255Z AUTO 10014G18KT 7SM -VCTSRA OVC007 17/17 A2980 RMK AO2 P0010 60013 T01680168
  • 240235Z AUTO 10012G18KT 5SM +RA OVC007 17/17 A2980 RMK AO2 LTG DSNT NE P0007 T01690169
  • 240215Z AUTO 10013G16KT 10SM -TSRA OVC007 17/17 A2980 RMK AO2 LTG DSNT E AND SW P0001 T01670167
  • 240155Z AUTO 09011KT 5SM TSRA OVC007 17/17 A2981 RMK AO2 LTG DSNT E AND S P0003 T01660166
  • 240135Z AUTO 09012KT 10SM -RA OVC007 17/17 A2983 RMK AO2 LTG DSNT SE THRU SW T01650165
  • 240115Z AUTO 09011G16KT 7SM -VCTSDZ OVC007 17/17 A2983 RMK AO2 LTG DSNT SE THRU W T01650165

TAF KBJI
Valid from the 24 at 00:00 until the 25 at 00:00 UTC


232320Z 2400/2424 09010KT P6SM OVC005
FM240400 10014KT 6SM SHRA VCTS OVC005CB
TEMPO 2404/2408 2SM TSRA
FM241300 11014KT P6SM VCSH OVC010
FM242200 11012KT 6SM -SHRA OVC015
KZMP FIR / North America



MET'MAP, your aeronautical weather chart ! - Copyright ORBIFLY December 2007 - Disclaimer

ORBIFLY MET'MAP TEAM :

Programming & Development : Alexandra Zaïnal
Original concept : Baudouin d'Aumeries
Technical & hardware support : Manuel Goepfert
Assistance : Marc-Olivier Méhu




SOURCES & CREDITS :

   NOAA       Earth
Advisory